Time;durP1;ratioP1;P1;durP2;ratioP2;P2;SDS_P1;SDS_P2;PMS_P1;PMS_P2;Temp;Humidity;BMP_temperature;BMP_pressure;BME280_temperature;BME280_humidity;BME280_pressure;Samples;Min_cycle;Max_cycle;Signal;HPM_P1;HPM_P2
2023/07/01 00:01:28;;;;;;;6.05;3.00;;;;;;;;;;5999907;29;20302;-69
2023/07/01 00:04:33;;;;;;;7.95;3.10;;;;;;;;;;6000604;29;20243;-69
2023/07/01 00:07:38;;;;;;;6.80;3.28;;;;;;;;;;5998313;29;20259;-69
2023/07/01 00:10:44;;;;;;;7.28;2.70;;;;;;;;;;6023380;29;20247;-68
2023/07/01 00:13:49;;;;;;;6.85;3.38;;;;;;;;;;6023177;29;20448;-69
2023/07/01 00:16:54;;;;;;;11.02;3.22;;;;;;;;;;6022700;29;20492;-69
2023/07/01 00:19:59;;;;;;;3.95;2.80;;;;;;;;;;6023242;29;20251;-69
2023/07/01 00:23:04;;;;;;;8.05;3.50;;;;;;;;;;6022828;29;20274;-69
2023/07/01 00:26:10;;;;;;;9.23;3.08;;;;;;;;;;6022933;29;20436;-69
2023/07/01 00:29:15;;;;;;;10.55;2.85;;;;;;;;;;6023807;29;20255;-68
2023/07/01 00:32:19;;;;;;;9.50;2.80;;;;;;;;;;6020882;29;20567;-68
2023/07/01 00:35:24;;;;;;;5.93;2.63;;;;;;;;;;6020922;29;20274;-69
2023/07/01 00:38:29;;;;;;;10.52;3.38;;;;;;;;;;6022622;29;20255;-68
2023/07/01 00:41:35;;;;;;;18.10;3.38;;;;;;;;;;6022774;29;20290;-68
2023/07/01 00:44:40;;;;;;;16.08;3.20;;;;;;;;;;6006122;29;20282;-69
2023/07/01 00:47:45;;;;;;;2.80;2.65;;;;;;;;;;6021243;29;20448;-69
2023/07/01 00:50:49;;;;;;;2.90;2.58;;;;;;;;;;6020433;29;20278;-68
2023/07/01 00:53:55;;;;;;;5.80;2.55;;;;;;;;;;6022705;29;20254;-69
2023/07/01 00:57:03;;;;;;;5.55;2.40;;;;;;;;;;6022731;29;20263;-68
2023/07/01 01:00:10;;;;;;;7.38;3.22;;;;;;;;;;6022517;29;20520;-69
2023/07/01 01:03:22;;;;;;;8.40;3.38;;;;;;;;;;6022115;29;20271;-69
2023/07/01 01:06:36;;;;;;;5.57;2.75;;;;;;;;;;6018195;29;20279;-68
2023/07/01 01:09:45;;;;;;;5.57;2.80;;;;;;;;;;6000125;29;20355;-69
2023/07/01 01:12:53;;;;;;;6.35;2.72;;;;;;;;;;5999990;29;20260;-68
2023/07/01 01:15:58;;;;;;;6.38;3.15;;;;;;;;;;6012781;29;20307;-70
2023/07/01 01:19:08;;;;;;;6.43;2.70;;;;;;;;;;5999579;29;20243;-68
2023/07/01 01:22:19;;;;;;;5.72;2.50;;;;;;;;;;6013205;29;20303;-68
2023/07/01 01:25:29;;;;;;;9.48;2.97;;;;;;;;;;6013104;29;20571;-68
2023/07/01 01:28:36;;;;;;;6.25;2.50;;;;;;;;;;5999794;29;20252;-69
2023/07/01 01:31:42;;;;;;;4.82;2.83;;;;;;;;;;5983472;29;20581;-69
2023/07/01 01:34:47;;;;;;;8.05;2.80;;;;;;;;;;5999694;29;20524;-69
2023/07/01 01:37:54;;;;;;;5.18;2.60;;;;;;;;;;5999252;29;20252;-67
2023/07/01 01:41:05;;;;;;;12.48;2.95;;;;;;;;;;6013786;29;20276;-68
2023/07/01 01:44:18;;;;;;;5.55;2.65;;;;;;;;;;5999213;29;20280;-69
2023/07/01 01:47:28;;;;;;;8.70;3.40;;;;;;;;;;5998021;29;20276;-70
2023/07/01 01:50:34;;;;;;;4.75;2.60;;;;;;;;;;5999544;29;20253;-69
2023/07/01 01:53:39;;;;;;;5.18;3.33;;;;;;;;;;5999873;29;20256;-68
2023/07/01 01:56:44;;;;;;;7.00;2.90;;;;;;;;;;5982644;29;20284;-68
2023/07/01 01:59:51;;;;;;;5.97;2.83;;;;;;;;;;5983855;29;20271;-69
2023/07/01 02:02:56;;;;;;;7.03;2.85;;;;;;;;;;6017641;29;20298;-69
2023/07/01 02:06:00;;;;;;;6.63;2.45;;;;;;;;;;6003111;29;20252;-68
2023/07/01 02:09:05;;;;;;;6.43;3.00;;;;;;;;;;6025042;29;20259;-71
2023/07/01 02:12:10;;;;;;;5.10;2.70;;;;;;;;;;6025586;29;20251;-67
2023/07/01 02:15:16;;;;;;;5.00;3.05;;;;;;;;;;6025794;29;20286;-69
2023/07/01 02:18:21;;;;;;;7.70;2.97;;;;;;;;;;6023937;29;20283;-68
2023/07/01 02:21:25;;;;;;;10.40;3.10;;;;;;;;;;6025813;29;20247;-68
2023/07/01 02:24:30;;;;;;;4.88;2.55;;;;;;;;;;6025442;29;20418;-69
2023/07/01 02:27:34;;;;;;;11.60;3.05;;;;;;;;;;6008376;29;20267;-67
2023/07/01 02:30:40;;;;;;;4.28;2.70;;;;;;;;;;6025308;29;20255;-69
2023/07/01 02:33:47;;;;;;;8.05;3.08;;;;;;;;;;6024937;29;20251;-67
2023/07/01 02:36:52;;;;;;;8.25;2.60;;;;;;;;;;6007771;29;20287;-68
2023/07/01 02:39:56;;;;;;;7.00;2.75;;;;;;;;;;6024590;29;20486;-68
2023/07/01 02:43:02;;;;;;;7.45;2.80;;;;;;;;;;6024567;29;20579;-68
2023/07/01 02:46:08;;;;;;;7.05;3.10;;;;;;;;;;6023122;29;20279;-70
2023/07/01 02:49:13;;;;;;;6.40;3.20;;;;;;;;;;6023102;29;20294;-68
2023/07/01 02:52:18;;;;;;;5.40;2.70;;;;;;;;;;6038659;29;20278;-69
2023/07/01 02:55:24;;;;;;;8.15;3.30;;;;;;;;;;6025299;29;20283;-68
2023/07/01 02:58:29;;;;;;;3.35;2.75;;;;;;;;;;6028543;29;20247;-68
2023/07/01 03:01:34;;;;;;;6.93;2.88;;;;;;;;;;6025137;29;20283;-68
2023/07/01 03:04:39;;;;;;;5.90;2.78;;;;;;;;;;6026875;29;20266;-68
2023/07/01 03:07:44;;;;;;;6.80;3.17;;;;;;;;;;6041183;29;20340;-68
2023/07/01 03:10:49;;;;;;;9.38;3.38;;;;;;;;;;6028045;29;20247;-68
2023/07/01 03:13:54;;;;;;;8.65;3.08;;;;;;;;;;6026115;29;20252;-69
2023/07/01 03:17:00;;;;;;;5.35;3.30;;;;;;;;;;6024802;29;20295;-68
2023/07/01 03:20:06;;;;;;;7.72;3.08;;;;;;;;;;6024702;29;20243;-68
2023/07/01 03:23:10;;;;;;;5.57;3.00;;;;;;;;;;6024084;29;20267;-68
2023/07/01 03:26:16;;;;;;;7.63;3.05;;;;;;;;;;6038218;29;20438;-67
2023/07/01 03:29:21;;;;;;;3.15;2.92;;;;;;;;;;6038109;29;20279;-68
2023/07/01 03:32:27;;;;;;;11.15;3.15;;;;;;;;;;6021849;29;20464;-68
2023/07/01 03:35:32;;;;;;;8.48;3.05;;;;;;;;;;6023786;29;20276;-68
2023/07/01 03:38:37;;;;;;;6.10;3.13;;;;;;;;;;6024053;29;20243;-68
2023/07/01 03:41:41;;;;;;;3.20;2.90;;;;;;;;;;6023430;29;20251;-68
2023/07/01 03:44:46;;;;;;;5.88;3.10;;;;;;;;;;6023347;29;20274;-69
2023/07/01 03:47:52;;;;;;;4.85;2.97;;;;;;;;;;6023580;29;20243;-69
2023/07/01 03:50:57;;;;;;;5.15;2.53;;;;;;;;;;6023583;29;20251;-68
2023/07/01 03:54:01;;;;;;;3.85;3.35;;;;;;;;;;6023374;29;20449;-68
2023/07/01 03:57:06;;;;;;;7.63;3.10;;;;;;;;;;6023273;29;20257;-68
2023/07/01 04:00:17;;;;;;;11.65;3.22;;;;;;;;;;6023454;29;20239;-68
2023/07/01 04:03:24;;;;;;;5.10;2.80;;;;;;;;;;6024001;29;20266;-69
2023/07/01 04:06:29;;;;;;;2.90;2.70;;;;;;;;;;6020769;29;20284;-68
2023/07/01 04:09:33;;;;;;;10.32;3.25;;;;;;;;;;6000745;29;20268;-69
2023/07/01 04:12:39;;;;;;;7.22;3.25;;;;;;;;;;6000545;29;20319;-71
2023/07/01 04:15:44;;;;;;;6.82;2.72;;;;;;;;;;6000421;29;20290;-69
2023/07/01 04:18:50;;;;;;;5.75;2.70;;;;;;;;;;5984491;29;20279;-69
2023/07/01 04:21:54;;;;;;;3.53;2.92;;;;;;;;;;6000581;29;20247;-68
2023/07/01 04:24:59;;;;;;;7.60;2.58;;;;;;;;;;5999475;29;20565;-68
2023/07/01 04:28:05;;;;;;;7.80;3.08;;;;;;;;;;6000096;29;20247;-69
2023/07/01 04:31:09;;;;;;;10.57;2.78;;;;;;;;;;5999974;29;20391;-70
2023/07/01 04:34:15;;;;;;;5.68;2.95;;;;;;;;;;6000382;29;20251;-69
2023/07/01 04:37:21;;;;;;;5.43;3.15;;;;;;;;;;5983792;29;20459;-68
2023/07/01 04:40:25;;;;;;;5.82;2.97;;;;;;;;;;6000148;29;20247;-69
2023/07/01 04:43:30;;;;;;;4.72;3.10;;;;;;;;;;5999774;29;20271;-68
2023/07/01 04:46:35;;;;;;;3.90;2.38;;;;;;;;;;5999773;29;20248;-67
2023/07/01 04:49:41;;;;;;;5.65;2.75;;;;;;;;;;6000520;29;20267;-68
2023/07/01 04:52:45;;;;;;;3.55;3.05;;;;;;;;;;5999696;29;20248;-69
2023/07/01 04:55:50;;;;;;;4.72;2.97;;;;;;;;;;5999892;29;20394;-68
2023/07/01 04:58:54;;;;;;;4.57;2.78;;;;;;;;;;5999861;29;20248;-69
2023/07/01 05:01:59;;;;;;;5.70;2.53;;;;;;;;;;5999168;29;20247;-68
2023/07/01 05:05:06;;;;;;;7.15;2.92;;;;;;;;;;5999382;29;20275;-69
2023/07/01 05:08:11;;;;;;;4.35;2.88;;;;;;;;;;6001190;29;20255;-68
2023/07/01 05:11:16;;;;;;;3.85;2.50;;;;;;;;;;6021660;29;20252;-68
2023/07/01 05:14:20;;;;;;;5.50;2.47;;;;;;;;;;6021960;29;20255;-68
2023/07/01 05:17:25;;;;;;;7.07;3.00;;;;;;;;;;6021822;29;20298;-69
2023/07/01 05:20:31;;;;;;;10.40;2.80;;;;;;;;;;6022015;29;20252;-69
2023/07/01 05:23:35;;;;;;;5.05;2.80;;;;;;;;;;6022769;29;20255;-68
2023/07/01 05:26:40;;;;;;;9.32;2.80;;;;;;;;;;6022014;29;20256;-70
2023/07/01 05:29:44;;;;;;;6.28;2.95;;;;;;;;;;6021661;29;20527;-68
2023/07/01 05:32:49;;;;;;;7.97;3.08;;;;;;;;;;6021763;29;20250;-69
2023/07/01 05:35:55;;;;;;;5.85;2.83;;;;;;;;;;6024499;29;20251;-69
2023/07/01 05:39:00;;;;;;;2.80;2.60;;;;;;;;;;6026159;29;20260;-68
2023/07/01 05:42:05;;;;;;;6.53;2.70;;;;;;;;;;6026113;29;20247;-69
2023/07/01 05:45:11;;;;;;;5.68;2.88;;;;;;;;;;6025970;29;20270;-71
2023/07/01 05:48:15;;;;;;;7.18;2.70;;;;;;;;;;6025958;29;20311;-69
2023/07/01 05:51:21;;;;;;;4.93;2.92;;;;;;;;;;6024727;29;20535;-69
2023/07/01 05:54:26;;;;;;;5.65;2.60;;;;;;;;;;6025731;29;20247;-68
2023/07/01 05:57:30;;;;;;;4.65;2.70;;;;;;;;;;6026135;29;20247;-68
2023/07/01 06:00:35;;;;;;;7.32;2.67;;;;;;;;;;6025472;29;20251;-69
2023/07/01 06:03:39;;;;;;;7.53;2.92;;;;;;;;;;6025547;29;20246;-68
2023/07/01 06:06:45;;;;;;;6.78;2.88;;;;;;;;;;6021430;29;20423;-70
2023/07/01 06:09:50;;;;;;;7.80;3.38;;;;;;;;;;6002592;29;20263;-69
2023/07/01 06:12:55;;;;;;;3.88;2.42;;;;;;;;;;6002689;29;20248;-68
2023/07/01 06:15:59;;;;;;;4.15;2.90;;;;;;;;;;6002733;29;20315;-67
2023/07/01 06:19:04;;;;;;;6.57;2.72;;;;;;;;;;6002889;29;20252;-67
2023/07/01 06:22:10;;;;;;;6.97;2.78;;;;;;;;;;6002175;29;20248;-67
2023/07/01 06:25:15;;;;;;;5.40;3.17;;;;;;;;;;6002457;29;20347;-68
2023/07/01 06:28:20;;;;;;;7.90;2.72;;;;;;;;;;6003043;29;20249;-69
2023/07/01 06:31:24;;;;;;;6.10;2.97;;;;;;;;;;6003122;29;20432;-68
2023/07/01 06:34:29;;;;;;;7.32;3.13;;;;;;;;;;6002539;29;20248;-68
2023/07/01 06:37:35;;;;;;;9.32;2.78;;;;;;;;;;6002389;29;20248;-69
2023/07/01 06:40:40;;;;;;;11.35;3.08;;;;;;;;;;6002080;29;20440;-69
2023/07/01 06:43:44;;;;;;;4.82;2.78;;;;;;;;;;6002456;29;20359;-70
2023/07/01 06:46:49;;;;;;;3.10;2.17;;;;;;;;;;6001531;29;20548;-68
2023/07/01 06:49:54;;;;;;;5.10;2.53;;;;;;;;;;6002448;29;20296;-69
2023/07/01 06:52:59;;;;;;;4.47;2.53;;;;;;;;;;6001968;29;20248;-67
2023/07/01 06:56:04;;;;;;;5.03;2.88;;;;;;;;;;5995021;29;20543;-69
2023/07/01 06:59:09;;;;;;;3.67;2.75;;;;;;;;;;6002451;29;20252;-68
2023/07/01 07:02:13;;;;;;;6.38;3.10;;;;;;;;;;6001960;29;20248;-68
2023/07/01 07:05:18;;;;;;;7.47;3.17;;;;;;;;;;6001814;29;20276;-67
2023/07/01 07:08:24;;;;;;;4.25;2.67;;;;;;;;;;6005473;29;20247;-67
2023/07/01 07:11:29;;;;;;;9.32;3.05;;;;;;;;;;6024662;29;20307;-68
2023/07/01 07:14:33;;;;;;;6.28;3.75;;;;;;;;;;6024193;29;20292;-69
2023/07/01 07:17:38;;;;;;;9.65;3.10;;;;;;;;;;6024736;29;20263;-69
2023/07/01 07:20:43;;;;;;;4.20;2.47;;;;;;;;;;6007845;29;20283;-68
2023/07/01 07:23:49;;;;;;;7.90;2.65;;;;;;;;;;6024133;29;20247;-68
2023/07/01 07:26:57;;;;;;;9.40;2.88;;;;;;;;;;6023794;29;20279;-67
2023/07/01 07:30:02;;;;;;;5.32;2.78;;;;;;;;;;6023816;29;20243;-69
2023/07/01 07:33:09;;;;;;;6.72;2.78;;;;;;;;;;6023892;29;20255;-70
2023/07/01 07:36:13;;;;;;;4.13;2.50;;;;;;;;;;6022735;29;20275;-69
2023/07/01 07:39:20;;;;;;;4.57;2.70;;;;;;;;;;6023928;29;20259;-69
2023/07/01 07:42:25;;;;;;;2.92;2.67;;;;;;;;;;6023889;29;20239;-69
2023/07/01 07:45:30;;;;;;;4.35;2.80;;;;;;;;;;6023483;29;20320;-69
2023/07/01 07:48:35;;;;;;;3.95;2.67;;;;;;;;;;6024658;29;20412;-70
2023/07/01 07:51:39;;;;;;;5.60;2.95;;;;;;;;;;6023299;29;20362;-68
2023/07/01 07:54:46;;;;;;;6.95;3.10;;;;;;;;;;6023355;29;20528;-68
2023/07/01 07:57:51;;;;;;;4.20;2.42;;;;;;;;;;6023205;29;20255;-69
2023/07/01 08:00:55;;;;;;;10.93;2.88;;;;;;;;;;6023093;29;20479;-69
2023/07/01 08:04:00;;;;;;;7.40;3.25;;;;;;;;;;6023649;29;20255;-68
2023/07/01 08:07:07;;;;;;;4.70;2.88;;;;;;;;;;6016056;29;20455;-68
2023/07/01 08:10:13;;;;;;;6.38;3.03;;;;;;;;;;6000831;29;20248;-69
2023/07/01 08:13:18;;;;;;;5.45;2.92;;;;;;;;;;6000939;29;20264;-68
2023/07/01 08:16:22;;;;;;;6.78;2.95;;;;;;;;;;5986848;29;20304;-70
2023/07/01 08:19:27;;;;;;;3.00;2.80;;;;;;;;;;5978128;29;20245;-67
2023/07/01 08:22:31;;;;;;;2.60;2.45;;;;;;;;;;5978032;29;20244;-70
2023/07/01 08:25:39;;;;;;;4.80;3.05;;;;;;;;;;5977912;29;20249;-70
2023/07/01 08:28:44;;;;;;;4.97;3.08;;;;;;;;;;5977612;29;20257;-71
2023/07/01 08:31:50;;;;;;;5.47;3.22;;;;;;;;;;5977643;29;20249;-70
2023/07/01 08:34:54;;;;;;;8.27;3.30;;;;;;;;;;5978026;29;20248;-69
2023/07/01 08:37:59;;;;;;;9.25;3.25;;;;;;;;;;5977417;29;20305;-70
2023/07/01 08:41:06;;;;;;;4.82;3.03;;;;;;;;;;5977439;29;20637;-69
2023/07/01 08:44:13;;;;;;;8.85;3.53;;;;;;;;;;5977588;29;20372;-70
2023/07/01 08:47:19;;;;;;;3.13;2.80;;;;;;;;;;5977395;29;20267;-70
2023/07/01 08:50:24;;;;;;;3.13;2.92;;;;;;;;;;5977858;29;20272;-69
2023/07/01 08:53:29;;;;;;;4.78;2.80;;;;;;;;;;5977532;29;20358;-69
2023/07/01 08:56:35;;;;;;;3.20;2.95;;;;;;;;;;5977099;29;20309;-69
2023/07/01 08:59:40;;;;;;;3.25;2.90;;;;;;;;;;5976976;29;20585;-68
2023/07/01 09:02:45;;;;;;;5.28;3.10;;;;;;;;;;5977283;29;20396;-72
2023/07/01 09:05:49;;;;;;;6.18;3.28;;;;;;;;;;5977962;29;20252;-71
2023/07/01 09:08:54;;;;;;;6.88;3.35;;;;;;;;;;5977012;29;20248;-69
2023/07/01 09:12:00;;;;;;;5.75;2.88;;;;;;;;;;5981943;29;20271;-69
2023/07/01 09:15:07;;;;;;;5.07;2.90;;;;;;;;;;5981839;29;20296;-69
2023/07/01 09:18:22;;;;;;;4.60;2.88;;;;;;;;;;5981726;29;20538;-70
2023/07/01 09:21:28;;;;;;;4.05;3.08;;;;;;;;;;5981496;29;20554;-69
2023/07/01 09:24:39;;;;;;;5.13;3.10;;;;;;;;;;5982090;29;20248;-70
2023/07/01 09:27:46;;;;;;;3.40;2.95;;;;;;;;;;5981586;29;20273;-70
2023/07/01 09:30:51;;;;;;;4.97;3.30;;;;;;;;;;5981866;29;20402;-69
2023/07/01 09:34:00;;;;;;;7.20;3.00;;;;;;;;;;5981629;29;20263;-71
2023/07/01 09:37:17;;;;;;;5.28;2.75;;;;;;;;;;5981121;29;20544;-69
2023/07/01 09:40:24;;;;;;;3.33;2.70;;;;;;;;;;5981781;29;20249;-70
2023/07/01 09:43:36;;;;;;;4.15;3.13;;;;;;;;;;5981151;29;20505;-70
2023/07/01 09:46:43;;;;;;;5.43;3.15;;;;;;;;;;5981340;29;20268;-70
2023/07/01 09:49:50;;;;;;;5.03;2.90;;;;;;;;;;5981270;29;20256;-69
2023/07/01 09:52:55;;;;;;;3.75;3.33;;;;;;;;;;5981115;29;20249;-69
2023/07/01 09:56:01;;;;;;;2.92;2.72;;;;;;;;;;6003259;29;20545;-69
2023/07/01 09:59:08;;;;;;;3.20;2.65;;;;;;;;;;6004486;29;20260;-70
2023/07/01 10:02:12;;;;;;;3.35;2.97;;;;;;;;;;6003179;29;20576;-69
2023/07/01 10:05:18;;;;;;;3.17;2.97;;;;;;;;;;6003329;29;20248;-69
2023/07/01 10:08:23;;;;;;;16.40;3.55;;;;;;;;;;5986489;29;20268;-70
2023/07/01 10:11:27;;;;;;;4.38;2.78;;;;;;;;;;5963696;29;20284;-69
2023/07/01 10:14:34;;;;;;;3.00;2.80;;;;;;;;;;5981029;29;20264;-71
2023/07/01 10:17:46;;;;;;;5.78;3.00;;;;;;;;;;5963719;29;20445;-68
2023/07/01 10:20:51;;;;;;;4.20;3.10;;;;;;;;;;5979617;29;20280;-70
2023/07/01 10:23:57;;;;;;;6.35;3.28;;;;;;;;;;5980500;29;20249;-70
2023/07/01 10:27:02;;;;;;;4.32;2.90;;;;;;;;;;5980081;29;20276;-69
2023/07/01 10:30:09;;;;;;;3.28;2.90;;;;;;;;;;5980159;29;20248;-70
2023/07/01 10:33:59;;;;;;;4.18;3.03;;;;;;;;;;5980617;29;20240;-69
2023/07/01 10:37:13;;;;;;;4.90;3.20;;;;;;;;;;5889230;29;20520;-69
2023/07/01 10:40:45;;;;;;;9.88;2.90;;;;;;;;;;5980404;29;20552;-72
2023/07/01 10:43:49;;;;;;;6.32;3.63;;;;;;;;;;5959303;29;20569;-69
2023/07/01 10:47:17;;;;;;;14.13;3.38;;;;;;;;;;5979765;29;20259;-71
2023/07/01 10:50:22;;;;;;;6.18;3.30;;;;;;;;;;5961150;29;20319;-69
2023/07/01 10:53:27;;;;;;;3.50;3.13;;;;;;;;;;5963724;29;20288;-71
2023/07/01 10:56:34;;;;;;;3.70;3.33;;;;;;;;;;5979780;29;20252;-70
2023/07/01 10:59:39;;;;;;;3.17;2.88;;;;;;;;;;5979401;29;20347;-70
2023/07/01 11:02:45;;;;;;;4.93;3.15;;;;;;;;;;5979762;29;20245;-69
2023/07/01 11:05:58;;;;;;;4.95;3.10;;;;;;;;;;5979841;29;20545;-69
2023/07/01 11:09:03;;;;;;;3.53;3.22;;;;;;;;;;5979683;29;20268;-70
2023/07/01 11:12:09;;;;;;;6.25;3.10;;;;;;;;;;5979601;29;20253;-70
2023/07/01 11:15:17;;;;;;;3.17;2.95;;;;;;;;;;5989500;29;20306;-68
2023/07/01 11:18:23;;;;;;;5.32;3.08;;;;;;;;;;6024699;29;20246;-68
2023/07/01 11:21:29;;;;;;;3.35;2.85;;;;;;;;;;6024692;29;20247;-68
2023/07/01 11:24:34;;;;;;;4.40;3.40;;;;;;;;;;6024397;29;20250;-68
2023/07/01 11:27:43;;;;;;;3.60;3.10;;;;;;;;;;6024591;29;20286;-71
2023/07/01 11:30:47;;;;;;;5.55;3.17;;;;;;;;;;6024317;29;20327;-71
2023/07/01 11:33:55;;;;;;;3.50;3.20;;;;;;;;;;6024170;29;20247;-69
2023/07/01 11:37:00;;;;;;;4.22;3.22;;;;;;;;;;6024608;29;20547;-69
2023/07/01 11:40:06;;;;;;;3.80;3.50;;;;;;;;;;6023886;29;20255;-69
2023/07/01 11:43:11;;;;;;;4.30;3.92;;;;;;;;;;6024249;29;20247;-70
2023/07/01 11:46:16;;;;;;;4.30;3.50;;;;;;;;;;6023503;29;20420;-70
2023/07/01 11:49:24;;;;;;;5.78;3.10;;;;;;;;;;6023920;29;20266;-71
2023/07/01 11:52:29;;;;;;;4.07;3.78;;;;;;;;;;6023550;29;20512;-69
2023/07/01 11:55:37;;;;;;;4.65;3.63;;;;;;;;;;6006831;29;20350;-69
2023/07/01 11:58:49;;;;;;;6.55;3.22;;;;;;;;;;6023286;29;20247;-70
2023/07/01 12:01:57;;;;;;;3.67;3.42;;;;;;;;;;6023532;29;20255;-69
2023/07/01 12:05:03;;;;;;;3.50;3.20;;;;;;;;;;6023685;29;20239;-70
2023/07/01 12:08:08;;;;;;;7.13;4.55;;;;;;;;;;6008453;29;20509;-69
2023/07/01 12:11:16;;;;;;;5.18;3.78;;;;;;;;;;6000523;29;20544;-69
2023/07/01 12:14:22;;;;;;;4.10;3.78;;;;;;;;;;6000776;29;20296;-69
2023/07/01 12:17:28;;;;;;;8.77;4.50;;;;;;;;;;5978764;29;20299;-69
2023/07/01 12:20:34;;;;;;;10.02;5.00;;;;;;;;;;5977433;29;20528;-70
2023/07/01 12:23:43;;;;;;;5.57;4.70;;;;;;;;;;5977668;29;20249;-69
2023/07/01 12:26:48;;;;;;;10.90;4.88;;;;;;;;;;5977439;29;20245;-68
2023/07/01 12:29:53;;;;;;;11.25;4.75;;;;;;;;;;5977780;29;20272;-68
2023/07/01 12:32:57;;;;;;;5.35;4.68;;;;;;;;;;5977196;29;20272;-69
2023/07/01 12:36:04;;;;;;;5.97;4.50;;;;;;;;;;5977780;29;20244;-70
2023/07/01 12:39:08;;;;;;;7.57;5.05;;;;;;;;;;5978630;29;20287;-70
2023/07/01 12:42:14;;;;;;;4.95;4.70;;;;;;;;;;5977156;29;20244;-69
2023/07/01 12:45:19;;;;;;;5.50;4.75;;;;;;;;;;5976407;29;20244;-70
2023/07/01 12:48:23;;;;;;;6.68;4.63;;;;;;;;;;5977529;29;20274;-69
2023/07/01 12:51:29;;;;;;;6.57;4.60;;;;;;;;;;5976747;29;20248;-68
2023/07/01 12:54:35;;;;;;;5.55;4.50;;;;;;;;;;5977427;29;20402;-70
2023/07/01 12:57:40;;;;;;;5.00;4.60;;;;;;;;;;5976836;29;20248;-69
2023/07/01 13:00:47;;;;;;;4.63;4.22;;;;;;;;;;5976925;29;20454;-69
2023/07/01 13:04:10;;;;;;;8.27;4.40;;;;;;;;;;5977125;29;20248;-69
2023/07/01 13:07:19;;;;;;;5.38;4.82;;;;;;;;;;5976621;29;20429;-69
2023/07/01 13:10:23;;;;;;;8.85;4.03;;;;;;;;;;5977061;29;20276;-70
2023/07/01 13:13:28;;;;;;;4.35;4.00;;;;;;;;;;5999867;29;20248;-69
2023/07/01 13:16:34;;;;;;;4.38;4.07;;;;;;;;;;6014663;29;20306;-69
2023/07/01 13:19:40;;;;;;;4.60;4.30;;;;;;;;;;6022304;29;20283;-69
2023/07/01 13:22:46;;;;;;;4.80;4.40;;;;;;;;;;6022252;29;20247;-69
2023/07/01 13:25:52;;;;;;;4.90;4.47;;;;;;;;;;6022622;29;20252;-70
2023/07/01 13:28:57;;;;;;;5.47;5.05;;;;;;;;;;6022042;29;20271;-70
2023/07/01 13:32:04;;;;;;;7.55;4.88;;;;;;;;;;6022338;29;20274;-71
2023/07/01 13:35:08;;;;;;;12.57;4.90;;;;;;;;;;6022233;29;20255;-69
2023/07/01 13:38:14;;;;;;;8.18;4.68;;;;;;;;;;6022232;29;20411;-69
2023/07/01 13:41:25;;;;;;;5.13;4.30;;;;;;;;;;6022015;29;20251;-70
2023/07/01 13:44:30;;;;;;;5.32;4.50;;;;;;;;;;6022602;29;20247;-70
2023/07/01 13:47:45;;;;;;;5.07;4.60;;;;;;;;;;6021792;29;20247;-69
2023/07/01 13:50:52;;;;;;;7.50;4.30;;;;;;;;;;6022165;29;20267;-70
2023/07/01 13:53:58;;;;;;;7.80;4.78;;;;;;;;;;6021725;29;20247;-69
2023/07/01 13:57:03;;;;;;;8.07;5.88;;;;;;;;;;6024949;29;20319;-69
2023/07/01 14:00:09;;;;;;;8.90;4.55;;;;;;;;;;6026352;29;20247;-69
2023/07/01 14:03:27;;;;;;;8.88;4.53;;;;;;;;;;6026162;29;20294;-69
2023/07/01 14:06:31;;;;;;;8.43;4.47;;;;;;;;;;6023352;29;20256;-70
2023/07/01 14:09:38;;;;;;;6.32;4.40;;;;;;;;;;6003224;29;20275;-70
2023/07/01 14:12:43;;;;;;;4.60;4.30;;;;;;;;;;6002884;29;20252;-70
2023/07/01 14:15:50;;;;;;;8.60;4.68;;;;;;;;;;6002627;29;20295;-70
2023/07/01 14:18:55;;;;;;;4.95;4.50;;;;;;;;;;6002898;29;20243;-70
2023/07/01 14:22:01;;;;;;;4.13;3.72;;;;;;;;;;6002601;29;20271;-69
2023/07/01 14:25:08;;;;;;;7.18;4.18;;;;;;;;;;5986823;29;20289;-69
2023/07/01 14:28:14;;;;;;;6.18;4.00;;;;;;;;;;6002706;29;20524;-69
2023/07/01 14:31:20;;;;;;;5.22;4.18;;;;;;;;;;6002597;29;20349;-69
2023/07/01 14:34:31;;;;;;;5.65;3.90;;;;;;;;;;6002790;29;20243;-70
2023/07/01 14:37:36;;;;;;;10.18;4.18;;;;;;;;;;6002317;29;20247;-69
2023/07/01 14:40:42;;;;;;;4.85;3.97;;;;;;;;;;6002210;29;20251;-70
2023/07/01 14:43:46;;;;;;;6.50;5.00;;;;;;;;;;6002316;29;20252;-69
2023/07/01 14:46:51;;;;;;;11.80;4.65;;;;;;;;;;6002571;29;20247;-69
2023/07/01 14:49:56;;;;;;;7.25;4.10;;;;;;;;;;6002211;29;20529;-69
2023/07/01 14:53:00;;;;;;;5.15;4.10;;;;;;;;;;6002333;29;20244;-70
2023/07/01 14:56:06;;;;;;;5.28;4.80;;;;;;;;;;6002074;29;20247;-68
2023/07/01 14:59:11;;;;;;;6.53;4.30;;;;;;;;;;6002554;29;20312;-70
2023/07/01 15:02:16;;;;;;;5.65;4.53;;;;;;;;;;6002021;29;20248;-69
2023/07/01 15:05:20;;;;;;;6.50;4.18;;;;;;;;;;6002519;29;20324;-70
2023/07/01 15:08:25;;;;;;;5.38;3.92;;;;;;;;;;6018364;29;20493;-69
2023/07/01 15:11:31;;;;;;;4.60;4.30;;;;;;;;;;6024434;29;20439;-69
2023/07/01 15:14:35;;;;;;;8.18;3.88;;;;;;;;;;6025158;29;20262;-70
2023/07/01 15:17:41;;;;;;;4.72;4.30;;;;;;;;;;6023239;29;20295;-71
2023/07/01 15:20:45;;;;;;;10.00;4.53;;;;;;;;;;6024432;29;20246;-69
2023/07/01 15:23:50;;;;;;;4.60;4.22;;;;;;;;;;6024154;29;20244;-69
2023/07/01 15:26:56;;;;;;;4.82;4.40;;;;;;;;;;6023774;29;20255;-70
2023/07/01 15:30:07;;;;;;;7.10;4.47;;;;;;;;;;6025020;29;20270;-70
2023/07/01 15:33:12;;;;;;;6.22;4.30;;;;;;;;;;6027750;29;20326;-69
2023/07/01 15:36:16;;;;;;;4.93;4.50;;;;;;;;;;6028136;29;20234;-69
2023/07/01 15:39:21;;;;;;;8.48;4.72;;;;;;;;;;6026661;29;20251;-69
2023/07/01 15:42:27;;;;;;;4.65;4.25;;;;;;;;;;6023715;29;20415;-69
2023/07/01 15:45:31;;;;;;;4.95;4.38;;;;;;;;;;6023706;29;20255;-70
2023/07/01 15:48:36;;;;;;;7.18;4.57;;;;;;;;;;6023643;29;20247;-70
2023/07/01 15:51:41;;;;;;;6.45;4.70;;;;;;;;;;6024122;29;20579;-69
2023/07/01 15:54:45;;;;;;;8.70;4.93;;;;;;;;;;6023410;29;20281;-69
2023/07/01 15:57:51;;;;;;;5.13;4.78;;;;;;;;;;6023200;29;20264;-71
2023/07/01 16:00:56;;;;;;;7.57;4.43;;;;;;;;;;6023298;29;20255;-68
2023/07/01 16:04:01;;;;;;;5.95;4.63;;;;;;;;;;6023351;29;20247;-69
2023/07/01 16:07:26;;;;;;;6.78;4.22;;;;;;;;;;6015945;29;20532;-70
2023/07/01 16:10:31;;;;;;;5.28;4.10;;;;;;;;;;6000177;29;20271;-70
2023/07/01 16:13:41;;;;;;;7.88;4.28;;;;;;;;;;6000558;29;20248;-69
2023/07/01 16:16:45;;;;;;;6.45;4.20;;;;;;;;;;6000294;29;20295;-69
2023/07/01 16:19:50;;;;;;;6.43;4.00;;;;;;;;;;5999943;29;20252;-68
2023/07/01 16:22:55;;;;;;;4.82;4.30;;;;;;;;;;6000609;29;20267;-70
2023/07/01 16:26:01;;;;;;;4.63;4.40;;;;;;;;;;6000543;29;20259;-68
2023/07/01 16:29:07;;;;;;;5.93;5.40;;;;;;;;;;6000689;29;20266;-70
2023/07/01 16:32:15;;;;;;;4.03;3.83;;;;;;;;;;6000142;29;20271;-70
2023/07/01 16:36:14;;;;;;;72.43;54.75;;;;;;;;;;6000551;29;20251;-70
2023/07/01 16:39:19;;;;;;;11.57;10.57;;;;;;;;;;5996150;29;20280;-70
2023/07/01 16:42:25;;;;;;;11.40;6.93;;;;;;;;;;6000504;29;20248;-69
2023/07/01 16:45:37;;;;;;;6.57;5.60;;;;;;;;;;6000120;29;20324;-71
2023/07/01 16:48:48;;;;;;;5.10;4.40;;;;;;;;;;6000519;29;20248;-69
2023/07/01 16:51:53;;;;;;;4.43;4.07;;;;;;;;;;6000248;29;20271;-69
2023/07/01 16:54:58;;;;;;;5.30;4.80;;;;;;;;;;6000233;29;20531;-72
2023/07/01 16:58:03;;;;;;;7.20;4.43;;;;;;;;;;6000249;29;20301;-70
2023/07/01 17:01:10;;;;;;;7.30;4.35;;;;;;;;;;6000213;29;20255;-70
2023/07/01 17:04:21;;;;;;;9.05;4.70;;;;;;;;;;6000224;29;20243;-69
2023/07/01 17:07:27;;;;;;;5.25;3.88;;;;;;;;;;6009299;29;20265;-71
2023/07/01 17:10:42;;;;;;;4.53;4.13;;;;;;;;;;6022978;29;20263;-69
2023/07/01 17:13:47;;;;;;;4.75;4.07;;;;;;;;;;6022869;29;20266;-69
2023/07/01 17:16:53;;;;;;;11.52;5.28;;;;;;;;;;6022905;29;20375;-70
2023/07/01 17:19:58;;;;;;;6.00;4.90;;;;;;;;;;6022897;29;20524;-69
2023/07/01 17:23:04;;;;;;;6.38;4.82;;;;;;;;;;6022903;29;20422;-70
2023/07/01 17:26:09;;;;;;;9.82;4.55;;;;;;;;;;6022436;29;20251;-69
2023/07/01 17:29:13;;;;;;;7.93;4.30;;;;;;;;;;6022708;29;20247;-69
2023/07/01 17:32:20;;;;;;;4.32;4.00;;;;;;;;;;6026062;29;20275;-71
2023/07/01 17:35:27;;;;;;;9.15;4.55;;;;;;;;;;6026451;29;20243;-69
2023/07/01 17:38:31;;;;;;;4.47;4.18;;;;;;;;;;6026956;29;20267;-70
2023/07/01 17:41:36;;;;;;;6.88;4.50;;;;;;;;;;6026748;29;20247;-69
2023/07/01 17:44:44;;;;;;;11.32;4.28;;;;;;;;;;6026821;29;20251;-71
2023/07/01 17:47:52;;;;;;;4.60;4.20;;;;;;;;;;6026475;29;20263;-69
2023/07/01 17:50:57;;;;;;;5.90;4.47;;;;;;;;;;6027174;29;20382;-69
2023/07/01 17:54:01;;;;;;;11.45;4.78;;;;;;;;;;6027803;29;20523;-70
2023/07/01 17:57:06;;;;;;;10.07;4.45;;;;;;;;;;6027149;29;20247;-68
2023/07/01 18:00:13;;;;;;;3.88;3.45;;;;;;;;;;6026922;29;20239;-70
2023/07/01 18:03:19;;;;;;;3.95;3.67;;;;;;;;;;6034347;29;20274;-69
2023/07/01 18:06:24;;;;;;;3.33;3.13;;;;;;;;;;6024303;29;20441;-70
2023/07/01 18:09:28;;;;;;;4.90;3.50;;;;;;;;;;6003488;29;20256;-69
2023/07/01 18:12:34;;;;;;;4.75;2.90;;;;;;;;;;6003507;29;20271;-71
2023/07/01 18:15:39;;;;;;;11.57;3.20;;;;;;;;;;6003064;29;20295;-69
2023/07/01 18:18:45;;;;;;;4.85;2.80;;;;;;;;;;6003201;29;20276;-69
2023/07/01 18:21:50;;;;;;;3.38;3.08;;;;;;;;;;6003172;29;20256;-70
2023/07/01 18:24:55;;;;;;;3.75;3.45;;;;;;;;;;6002984;29;20247;-70
2023/07/01 18:28:02;;;;;;;3.30;3.00;;;;;;;;;;6003284;29;20320;-71
2023/07/01 18:31:07;;;;;;;4.28;3.20;;;;;;;;;;6002838;29;20239;-69
2023/07/01 18:34:13;;;;;;;3.60;2.78;;;;;;;;;;6003054;29;20275;-70